Terminal Aerodrome Forecast
Issued by NWS

Home | Current Version | Previous Version | Text Only | Print | Product List | Glossary On
Versions: 1 2 3 4 5 6 7 8 9 10 11 12 13
000
FTUS45 KRIW 280522
TAFPNA
TAF
KPNA 280522Z 2806/2906 31008KT P6SM FEW080
     FM282200 32011KT P6SM VCTS SCT070CB BKN110
     FM290200 31007KT P6SM SCT090
      AMD LTD TO CLD VIS AND WIND=

USA.gov is the U.S. government's official web portal to all federal, state and local government web resources and services.